Weather reports worldwide

Advertisment
Uccle, Belgium (6447): temperature & dewpoint: 27.05.2020 22:00:00 - 02.06.2020 22:00:00 (CEST)Uccle, Belgium (6447): wind speed & gusts: 27.05.2020 22:00:00 - 02.06.2020 22:00:00 (CEST)Uccle, Belgium (6447): wind direction: 27.05.2020 22:00:00 - 02.06.2020 22:00:00 (CEST)Uccle, Belgium (6447): reduced air pressure: 27.05.2020 22:00:00 - 02.06.2020 22:00:00 (CEST)Uccle, Belgium (6447): sunshine duration: 27.05.2020 22:00:00 - 02.06.2020 22:00:00 (CEST)Uccle, Belgium (6447): precipitation: 27.05.2020 22:00:00 - 02.06.2020 22:00:00 (CEST)
Date & Time tt [°C] td [°C] ff [km/h] ff [kn] fx [km/h] fx [kn] dd ppp [hPa] sd [min] rr [mm]
02.06.2020 22:00:00 20,6 6,4 9 5 22 12 NNW 1012,7 0 0,0
02.06.2020 21:00:00 22,2 6,5 13 7 28 15 NNW 1012,9 12 0,0
02.06.2020 20:00:00 - - - - - - - - - -
02.06.2020 19:00:00 24,7 7,3 19 10 32 18 NW 1013,1 43 0,0
02.06.2020 18:00:00 26,3 7,1 14 8 32 18 NNW 1013,4 37 0,0
02.06.2020 17:00:00 27,1 7,0 8 5 21 12 NW 1013,9 38 0,0
02.06.2020 16:00:00 27,5 6,8 12 7 23 12 WSW 1014,5 42 0,0
02.06.2020 15:00:00 26,9 6,6 10 6 21 11 NNW 1015,1 38 0,0
02.06.2020 14:00:00 26,2 6,3 11 6 18 10 NW 1015,6 39 0,0
02.06.2020 13:00:00 26,2 6,8 10 6 17 9 N 1016,3 42 0,0
02.06.2020 12:00:00 25,4 6,3 7 4 16 9 NE 1017,0 41 0,0
02.06.2020 11:00:00 23,8 5,8 8 4 19 10 N 1017,4 40 0,0
02.06.2020 10:00:00 22,9 6,1 9 5 19 10 N 1017,7 43 0,0
02.06.2020 09:00:00 19,7 10,1 4 2 8 4 E 1017,8 37 0,0
02.06.2020 08:00:00 16,0 9,1 7 4 9 5 NNE 1018,2 40 0,0
02.06.2020 07:00:00 13,3 7,2 6 3 8 4 NE 1018,4 28 0,0
02.06.2020 06:00:00 13,4 6,2 4 2 8 5 N 1018,3 0 0,0
02.06.2020 05:00:00 14,2 5,0 7 4 10 6 NE 1018,1 0 0,0
02.06.2020 04:00:00 15,3 5,3 9 5 14 7 NE 1018,4 0 0,0
02.06.2020 03:00:00 15,9 5,5 8 4 13 7 NE 1018,8 0 0,0
02.06.2020 02:00:00 17,5 3,9 7 4 16 9 NNE 1019,1 0 0,0
02.06.2020 01:00:00 18,7 3,8 11 6 24 13 ENE 1019,2 0 0,0
02.06.2020 00:00:00 19,7 4,4 11 6 23 12 NNE 1019,2 0 0,0
01.06.2020 23:00:00 21,2 5,2 13 7 25 14 NE 1018,9 0 0,0
01.06.2020 22:00:00 22,4 6,0 13 7 24 13 NE 1018,5 0 0,0
01.06.2020 21:00:00 23,7 5,7 11 6 24 13 NE 1018,1 11 0,0
01.06.2020 20:00:00 25,2 5,9 14 8 25 14 NE 1018,2 38 0,0
01.06.2020 19:00:00 25,7 6,3 10 5 23 13 E 1018,3 43 0,0
01.06.2020 18:00:00 25,5 5,6 13 7 27 15 E 1018,6 38 0,0
01.06.2020 17:00:00 25,8 6,3 14 7 27 15 ENE 1018,8 43 0,0
01.06.2020 16:00:00 25,5 7,0 10 6 40 22 E 1019,2 38 0,0
01.06.2020 15:00:00 24,9 7,5 16 9 33 18 NE 1019,6 40 0,0
01.06.2020 14:00:00 24,2 7,6 14 8 37 20 ENE 1020,0 42 0,0
01.06.2020 13:00:00 23,3 7,8 13 7 29 16 E 1020,4 41 0,0
01.06.2020 12:00:00 22,1 7,3 16 8 29 16 ENE 1020,8 42 0,0
01.06.2020 11:00:00 20,8 6,8 12 7 29 16 E 1021,1 38 0,0
01.06.2020 10:00:00 19,2 7,0 10 5 29 16 E 1021,3 40 0,0
01.06.2020 09:00:00 16,7 7,2 10 5 22 12 E 1021,5 38 0,0
01.06.2020 08:00:00 14,7 6,6 11 6 20 11 ENE 1021,1 34 0,0
01.06.2020 07:00:00 12,8 6,0 8 5 16 9 E 1021,1 30 0,0
01.06.2020 06:00:00 12,5 5,8 10 5 16 9 E 1021,1 0 0,0
01.06.2020 05:00:00 12,4 5,5 8 4 17 9 E 1021,0 0 0,0
01.06.2020 04:00:00 13,3 5,5 9 5 18 10 E 1021,0 0 0,0
01.06.2020 03:00:00 14,1 5,4 10 5 21 11 E 1021,0 0 0,0
01.06.2020 02:00:00 14,9 5,3 11 6 22 12 ENE 1021,0 0 0,0
01.06.2020 01:00:00 15,8 5,2 11 6 22 12 ENE 1020,9 0 0,0
01.06.2020 00:00:00 16,7 5,1 13 7 26 14 ENE 1021,0 0 0,0
31.05.2020 23:00:00 17,6 4,7 10 5 23 12 ENE 1020,7 0 0,0
31.05.2020 22:00:00 18,7 4,0 10 5 22 12 NE 1020,3 0 0,0
31.05.2020 21:00:00 20,1 3,1 12 7 32 17 ENE 1019,8 14 0,0
31.05.2020 20:00:00 21,0 3,4 11 6 29 15 ENE 1019,6 41 0,0
31.05.2020 19:00:00 21,0 2,2 10 6 32 17 E 1019,7 41 0,0
31.05.2020 18:00:00 22,0 2,5 13 7 34 19 ENE 1019,6 37 0,0
31.05.2020 17:00:00 21,5 2,4 16 9 39 21 ENE 1020,1 43 0,0
31.05.2020 16:00:00 21,6 1,6 10 5 39 21 NE 1020,1 41 0,0
31.05.2020 15:00:00 21,0 2,0 14 7 35 19 ENE 1020,5 43 0,0
31.05.2020 14:00:00 20,4 4,2 14 8 33 18 ENE 1020,7 42 0,0
31.05.2020 13:00:00 19,7 4,0 16 9 37 20 ENE 1021,2 37 0,0
31.05.2020 12:00:00 19,2 4,4 17 9 35 19 NE 1021,5 34 0,0
31.05.2020 11:00:00 19,0 4,9 15 8 29 16 NE 1021,8 39 0,0
31.05.2020 10:00:00 17,6 5,4 10 5 20 11 NE 1021,7 43 0,0
31.05.2020 09:00:00 16,2 5,3 5 3 21 11 ENE 1021,7 40 0,0
31.05.2020 08:00:00 14,1 4,6 11 6 17 9 ENE 1021,9 36 0,0
31.05.2020 07:00:00 12,1 4,2 9 5 16 8 ENE 1021,8 33 0,0
31.05.2020 06:00:00 11,4 3,0 8 4 17 9 E 1021,6 0 0,0
31.05.2020 05:00:00 12,9 3,4 9 5 21 11 ENE 1021,4 0 0,0
31.05.2020 04:00:00 13,5 3,3 9 5 18 10 E 1021,2 0 0,0
31.05.2020 03:00:00 14,3 3,4 10 5 17 9 ENE 1021,1 0 0,0
31.05.2020 02:00:00 15,2 3,3 11 6 21 12 E 1021,1 0 0,0
31.05.2020 01:00:00 16,2 3,4 11 6 21 11 E 1021,2 0 0,0
31.05.2020 00:00:00 17,1 3,3 10 5 22 12 E 1020,9 0 0,0
30.05.2020 23:00:00 17,4 3,7 9 5 16 9 ENE 1020,4 0 0,0
30.05.2020 22:00:00 19,5 3,3 9 5 18 10 ENE 1019,9 0 0,0
30.05.2020 21:00:00 21,2 2,9 12 7 28 15 ENE 1019,6 12 0,0
30.05.2020 20:00:00 22,7 3,2 11 6 26 14 E 1019,5 36 0,0
30.05.2020 19:00:00 23,1 3,9 12 7 29 15 E 1019,6 40 0,0
30.05.2020 18:00:00 23,4 3,8 16 8 37 20 ENE 1020,1 41 0,0
30.05.2020 17:00:00 23,7 3,5 11 6 34 18 ENE 1020,4 39 0,0
30.05.2020 16:00:00 23,5 3,8 14 8 32 17 E 1020,8 41 0,0
30.05.2020 15:00:00 23,7 3,8 10 5 32 17 E 1021,0 41 0,0
30.05.2020 14:00:00 22,0 3,2 11 6 32 17 ENE 1021,6 44 0,0
30.05.2020 13:00:00 21,9 3,4 13 7 36 19 ENE 1022,0 37 0,0
30.05.2020 12:00:00 21,1 3,2 14 7 29 16 ENE 1022,4 43 0,0
30.05.2020 11:00:00 19,8 4,7 9 5 23 12 E 1022,7 38 0,0
30.05.2020 10:00:00 18,0 4,9 10 5 27 14 E 1022,7 39 0,0
30.05.2020 09:00:00 15,5 4,8 11 6 21 12 E 1022,9 42 0,0
30.05.2020 08:00:00 12,9 4,3 7 4 19 11 E 1022,7 39 0,0
30.05.2020 07:00:00 11,2 3,6 10 5 19 11 E 1022,7 42 0,0
30.05.2020 06:00:00 11,4 3,6 10 6 17 9 ENE 1022,6 0 0,0
30.05.2020 05:00:00 12,2 3,2 6 4 22 12 ENE 1022,6 0 0,0
30.05.2020 04:00:00 13,9 2,9 13 7 22 12 NE 1022,6 0 0,0
30.05.2020 03:00:00 14,5 3,3 14 7 23 12 NE 1022,8 0 0,0
30.05.2020 02:00:00 14,7 4,1 11 6 18 10 ENE 1022,9 0 0,0
30.05.2020 01:00:00 15,6 4,4 11 6 18 10 ENE 1022,8 0 0,0
30.05.2020 00:00:00 16,0 4,2 11 6 17 9 ENE 1022,8 0 0,0
29.05.2020 23:00:00 16,4 3,6 10 5 14 8 NE 1022,7 0 0,0
29.05.2020 22:00:00 18,6 3,1 9 5 16 9 ENE 1022,5 0 0,0
29.05.2020 21:00:00 20,5 2,4 7 4 23 13 E 1022,4 15 0,0
29.05.2020 20:00:00 21,9 2,3 11 6 26 14 ENE 1022,6 55 0,0
29.05.2020 19:00:00 22,4 2,1 12 6 27 15 NE 1023,0 60 0,0
29.05.2020 18:00:00 22,7 2,3 12 7 31 17 ENE 1023,3 60 0,0
29.05.2020 17:00:00 22,7 2,5 15 8 26 14 NE 1023,9 59 0,0
29.05.2020 16:00:00 22,1 2,7 11 6 28 15 ENE 1024,5 57 0,0
29.05.2020 15:00:00 21,5 2,6 15 8 30 16 ENE 1025,3 58 0,0
29.05.2020 14:00:00 21,0 3,0 11 6 30 16 ESE 1026,1 60 0,0
29.05.2020 13:00:00 19,9 3,9 13 7 26 14 NE 1026,9 60 0,0
29.05.2020 12:00:00 19,4 5,4 9 5 22 12 NNE 1027,3 59 0,0
29.05.2020 11:00:00 17,7 5,6 8 5 20 11 ENE 1027,8 57 0,0
29.05.2020 10:00:00 15,8 6,2 8 4 24 13 E 1028,1 56 0,0
29.05.2020 09:00:00 13,4 5,6 11 6 21 12 E 1028,2 56 0,0
29.05.2020 08:00:00 11,0 4,7 11 6 23 12 E 1028,4 50 0,0
29.05.2020 07:00:00 9,9 4,2 10 6 22 12 ENE 1028,7 50 0,0
29.05.2020 06:00:00 9,9 3,7 11 6 21 11 NE 1028,7 0 0,0
29.05.2020 05:00:00 10,5 3,4 12 6 24 13 ENE 1028,6 0 0,0
29.05.2020 04:00:00 11,6 2,9 10 5 23 12 NE 1029,0 0 0,0
29.05.2020 03:00:00 12,2 2,6 8 5 22 12 ENE 1029,0 0 0,0
29.05.2020 02:00:00 13,7 3,1 11 6 25 13 NE 1029,0 0 0,0
29.05.2020 01:00:00 14,8 4,6 13 7 27 15 NE 1029,2 0 0,0
29.05.2020 00:00:00 16,1 5,3 13 7 25 14 NNE 1029,2 0 0,0
28.05.2020 23:00:00 16,8 2,6 9 5 19 11 NE 1029,0 0 0,0
28.05.2020 22:00:00 17,9 1,9 10 5 30 16 NE 1028,8 0 0,0
28.05.2020 21:00:00 19,2 1,2 15 8 32 17 NE 1028,8 16 0,0
28.05.2020 20:00:00 20,4 1,1 14 8 32 17 NE 1028,7 60 0,0
28.05.2020 19:00:00 20,8 1,2 18 10 35 19 NE 1029,2 58 0,0
28.05.2020 18:00:00 21,1 1,6 16 9 31 17 NE 1029,6 57 0,0
28.05.2020 17:00:00 20,9 2,5 18 10 32 18 NNE 1030,0 59 0,0
28.05.2020 16:00:00 20,7 3,0 19 10 35 19 NE 1030,6 60 0,0
28.05.2020 15:00:00 20,3 3,1 16 9 32 18 NE 1031,1 60 0,0
28.05.2020 14:00:00 19,3 3,4 18 10 32 17 NE 1031,8 60 0,0
28.05.2020 13:00:00 18,6 2,9 15 8 36 19 E 1032,3 59 0,0
28.05.2020 12:00:00 17,1 3,3 17 9 34 18 NE 1032,8 57 0,0
28.05.2020 11:00:00 15,7 4,4 16 9 32 17 NE 1033,3 56 0,0
28.05.2020 10:00:00 14,3 6,4 14 8 33 18 NE 1033,4 56 0,0
28.05.2020 09:00:00 12,4 6,2 12 6 30 16 ENE 1033,5 55 0,0
28.05.2020 08:00:00 10,4 5,2 18 10 37 20 ENE 1033,4 45 0,0
28.05.2020 07:00:00 9,8 4,5 12 7 33 18 NE 1033,4 50 0,0
28.05.2020 06:00:00 10,3 4,6 15 8 32 18 NE 1033,2 0 0,0
28.05.2020 05:00:00 11,1 5,8 15 8 27 15 NE 1033,1 0 0,0
28.05.2020 04:00:00 11,9 8,0 16 8 29 15 NE 1032,9 0 0,0
28.05.2020 03:00:00 12,4 9,1 13 7 24 13 NNE 1033,0 0 0,0
28.05.2020 02:00:00 12,7 8,8 11 6 19 10 N 1033,2 0 0,0
28.05.2020 01:00:00 12,9 7,6 11 6 21 12 N 1033,3 0 0,0
28.05.2020 00:00:00 13,3 6,8 9 5 27 15 N 1033,3 0 0,0
27.05.2020 23:00:00 14,5 6,5 13 7 28 15 N 1033,2 0 0,0
27.05.2020 22:00:00 16,3 6,3 14 8 36 19 N 1032,7 0 0,0

tt = temperature
td = dewpoint
ff = wind speed
fx = gusts
dd = wind direction
ppp = reduced air pressure
sd = sunshine duration
rr = precipitation

Next stations